createdAt,value
2023-01-30T00:01:18.611Z,101128.31
2023-01-30T00:03:45.485Z,101115.53
2023-01-30T00:06:13.051Z,101121.59
2023-01-30T00:08:39.975Z,101136.88
2023-01-30T00:11:09.271Z,101135.09
2023-01-30T00:13:36.271Z,101142.75
2023-01-30T00:16:03.386Z,101131.69
2023-01-30T00:18:29.845Z,101134.31
2023-01-30T00:21:01.219Z,101121.41
2023-01-30T00:23:30.263Z,101124.88
2023-01-30T00:25:57.009Z,101110.38
2023-01-30T00:28:24.368Z,101114.63
2023-01-30T00:30:53.348Z,101112.09
2023-01-30T00:33:21.897Z,101111.22
2023-01-30T00:35:53.558Z,101110.41
2023-01-30T00:38:21.124Z,101111.25
2023-01-30T00:40:48.562Z,101106.91
2023-01-30T00:43:36.289Z,101098.31
2023-01-30T00:46:24.995Z,101094.09
2023-01-30T00:48:53.042Z,101096.69
2023-01-30T00:51:19.783Z,101088.97
2023-01-30T00:53:47.440Z,101080.44
2023-01-30T00:56:14.181Z,101077.88
2023-01-30T00:58:41.218Z,101068.47
2023-01-30T01:01:11.419Z,101062.59
2023-01-30T01:03:38.101Z,101058.22
2023-01-30T01:06:04.897Z,101048.81
2023-01-30T01:08:32.564Z,101056.50
2023-01-30T01:10:59.373Z,101063.41
2023-01-30T01:13:26.021Z,101053.13
2023-01-30T01:15:52.762Z,101037.75
2023-01-30T01:18:19.421Z,101027.47
2023-01-30T01:20:46.458Z,101028.34
2023-01-30T01:23:13.060Z,101027.56
2023-01-30T01:25:39.853Z,101021.53
2023-01-30T01:28:06.696Z,101029.22
2023-01-30T01:30:33.153Z,101016.44
2023-01-30T01:33:00.178Z,101008.72
2023-01-30T01:35:27.804Z,101031.00
2023-01-30T01:37:55.198Z,101024.97
2023-01-30T01:40:42.072Z,101010.44
2023-01-30T01:43:17.306Z,101010.47
2023-01-30T01:45:47.643Z,101018.16
2023-01-30T01:48:44.553Z,101013.16
2023-01-30T01:51:22.685Z,101005.47
2023-01-30T01:54:26.023Z,101006.22
2023-01-30T01:57:18.652Z,100996.84
2023-01-30T02:00:13.067Z,101013.94
2023-01-30T02:03:05.112Z,101017.38
2023-01-30T02:05:55.800Z,101014.00
2023-01-30T02:08:53.493Z,101005.41
2023-01-30T02:11:38.788Z,101008.78
2023-01-30T02:14:06.424Z,100991.66
2023-01-30T02:16:32.942Z,100984.91
2023-01-30T02:19:02.110Z,100985.78
2023-01-30T02:22:07.273Z,100982.31
2023-01-30T02:25:03.540Z,100978.13
2023-01-30T02:28:06.307Z,100974.69
2023-01-30T02:30:39.462Z,100974.69
2023-01-30T02:33:39.517Z,100973.88
2023-01-30T02:36:12.227Z,100955.03
2023-01-30T02:38:47.721Z,100959.34
2023-01-30T02:41:44.264Z,100937.97
2023-01-30T02:44:22.937Z,100934.53
2023-01-30T02:46:57.285Z,100931.09
2023-01-30T02:49:32.217Z,100931.97
2023-01-30T02:52:01.866Z,100943.16
2023-01-30T02:54:28.600Z,100969.66
2023-01-30T02:56:58.822Z,100964.53
2023-01-30T02:59:43.774Z,100970.47
2023-01-30T03:02:29.235Z,100957.72
2023-01-30T03:05:21.061Z,100966.31
2023-01-30T03:08:25.344Z,100984.22
2023-01-30T03:11:04.164Z,100975.66
2023-01-30T03:13:56.432Z,100974.81
2023-01-30T03:16:33.165Z,100976.53
2023-01-30T03:19:01.668Z,100974.91
2023-01-30T03:21:28.180Z,100968.00
2023-01-30T03:23:55.412Z,100967.06
2023-01-30T03:26:26.145Z,100973.94
2023-01-30T03:28:53.512Z,100972.22
2023-01-30T03:31:20.921Z,100955.97
2023-01-30T03:33:47.630Z,100955.97
2023-01-30T03:36:14.796Z,100951.72
2023-01-30T03:38:41.900Z,100952.59
2023-01-30T03:41:11.054Z,100975.63
2023-01-30T03:43:38.750Z,100945.66
2023-01-30T03:46:06.105Z,100966.19
2023-01-30T03:48:33.137Z,100948.97
2023-01-30T03:50:59.591Z,100949.91
2023-01-30T03:53:26.657Z,100958.41
2023-01-30T03:55:53.599Z,100948.94
2023-01-30T03:58:25.223Z,100949.78
2023-01-30T04:00:52.134Z,100943.88
2023-01-30T04:03:19.066Z,100956.66
2023-01-30T04:05:45.897Z,100971.22
2023-01-30T04:08:12.869Z,100968.59
2023-01-30T04:10:39.450Z,100945.47
2023-01-30T04:13:06.252Z,100947.97
2023-01-30T04:15:33.031Z,100951.38
2023-01-30T04:17:59.787Z,100950.59
2023-01-30T04:21:01.474Z,100943.69
2023-01-30T04:23:36.168Z,100951.38
2023-01-30T04:26:03.903Z,100941.94
2023-01-30T04:28:32.386Z,100935.09
2023-01-30T04:30:58.959Z,100941.91
2023-01-30T04:33:43.505Z,100937.66
2023-01-30T04:36:12.547Z,100929.16
2023-01-30T04:38:40.405Z,100913.81
2023-01-30T04:41:07.317Z,100910.41
2023-01-30T04:43:36.436Z,100917.22
2023-01-30T04:46:25.326Z,100918.16
2023-01-30T04:48:52.083Z,100906.13
2023-01-30T04:51:18.611Z,100904.44
2023-01-30T04:53:45.810Z,100901.03
2023-01-30T04:56:13.914Z,100885.63
2023-01-30T04:58:40.876Z,100890.78
2023-01-30T05:01:33.814Z,100877.97
2023-01-30T05:04:01.184Z,100883.19
2023-01-30T05:06:28.351Z,100868.66
2023-01-30T05:08:56.420Z,100871.19
2023-01-30T05:11:25.521Z,100873.78
2023-01-30T05:13:52.548Z,100863.53
2023-01-30T05:16:21.144Z,100851.53
2023-01-30T05:18:48.912Z,100858.41
2023-01-30T05:21:21.194Z,100860.09
2023-01-30T05:23:47.692Z,100866.97
2023-01-30T05:26:15.607Z,100855.88
2023-01-30T05:28:42.794Z,100845.59
2023-01-30T05:31:12.960Z,100836.19
2023-01-30T05:33:40.594Z,100841.34
2023-01-30T05:36:08.412Z,100850.78
2023-01-30T05:38:34.835Z,100849.03
2023-01-30T05:41:07.702Z,100848.25
2023-01-30T05:43:35.557Z,100847.38
2023-01-30T05:46:04.099Z,100855.91
2023-01-30T05:48:32.325Z,100851.69
2023-01-30T05:51:00.043Z,100856.84
2023-01-30T05:53:32.398Z,100877.34
2023-01-30T05:56:00.975Z,100868.84
2023-01-30T05:58:27.971Z,100873.16
2023-01-30T06:00:54.787Z,100885.94
2023-01-30T06:03:21.386Z,100874.00
2023-01-30T06:05:48.159Z,100874.81
2023-01-30T06:08:14.627Z,100873.06
2023-01-30T06:10:41.623Z,100871.38
2023-01-30T06:13:10.856Z,100867.94
2023-01-30T06:15:39.134Z,100845.72
2023-01-30T06:18:05.948Z,100835.50
2023-01-30T06:20:32.410Z,100834.66
2023-01-30T06:22:59.157Z,100835.50
2023-01-30T06:25:25.756Z,100832.97
2023-01-30T06:27:52.397Z,100842.41
2023-01-30T06:30:19.365Z,100848.41
2023-01-30T06:32:50.366Z,100856.94
2023-01-30T06:35:17.507Z,100826.19
2023-01-30T06:37:45.939Z,100826.19
2023-01-30T06:40:13.521Z,100820.19
2023-01-30T06:42:48.077Z,100819.34
2023-01-30T06:45:17.274Z,100811.63
2023-01-30T06:47:53.010Z,100816.81
2023-01-30T06:50:21.385Z,100805.69
2023-01-30T06:52:50.272Z,100807.41
2023-01-30T06:55:22.829Z,100792.00
2023-01-30T06:57:49.915Z,100803.97
2023-01-30T07:00:19.272Z,100802.28
2023-01-30T07:02:46.787Z,100800.56
2023-01-30T07:05:13.268Z,100809.09
2023-01-30T07:07:39.787Z,100811.69
2023-01-30T07:10:09.107Z,100816.81
2023-01-30T07:12:36.394Z,100821.13
2023-01-30T07:15:04.646Z,100821.13
2023-01-30T07:17:31.154Z,100826.28
2023-01-30T07:19:58.184Z,100811.72
2023-01-30T07:22:24.815Z,100801.47
2023-01-30T07:24:51.485Z,100786.97
2023-01-30T07:27:18.220Z,100790.41
2023-01-30T07:29:44.864Z,100797.28
2023-01-30T07:32:15.607Z,100793.88
2023-01-30T07:34:42.212Z,100804.16
2023-01-30T07:37:08.701Z,100787.09
2023-01-30T07:39:35.345Z,100805.91
2023-01-30T07:42:02.587Z,100817.03
2023-01-30T07:44:29.057Z,100837.56
2023-01-30T07:46:56.164Z,100834.97
2023-01-30T07:49:22.818Z,100810.19
2023-01-30T07:51:49.292Z,100804.22
2023-01-30T07:54:16.809Z,100817.06
2023-01-30T07:56:43.260Z,100815.31
2023-01-30T07:59:11.419Z,100808.50
2023-01-30T08:01:38.375Z,100822.16
2023-01-30T08:04:04.808Z,100817.03
2023-01-30T08:06:31.656Z,100828.19
2023-01-30T08:08:58.206Z,100827.31
2023-01-30T08:11:24.759Z,100830.72
2023-01-30T08:13:51.283Z,100829.03
2023-01-30T08:16:17.869Z,100840.16
2023-01-30T08:18:44.830Z,100853.03
2023-01-30T08:21:11.560Z,100833.34
2023-01-30T08:23:38.336Z,100845.31
2023-01-30T08:26:06.153Z,100848.75
2023-01-30T08:28:33.122Z,100846.22
2023-01-30T08:31:00.036Z,100833.38
2023-01-30T08:33:26.541Z,100824.06
2023-01-30T08:35:53.547Z,100820.63
2023-01-30T08:38:20.168Z,100828.31
2023-01-30T08:40:47.005Z,100820.63
2023-01-30T08:43:13.456Z,100836.03
2023-01-30T08:45:40.215Z,100824.09
2023-01-30T08:48:08.387Z,100821.53
2023-01-30T08:50:36.077Z,100821.53
2023-01-30T08:53:07.769Z,100829.22
2023-01-30T08:55:34.793Z,100833.53
2023-01-30T08:58:01.855Z,100823.22
2023-01-30T09:00:28.777Z,100827.56
2023-01-30T09:02:57.015Z,100823.34
2023-01-30T09:05:24.877Z,100820.78
2023-01-30T09:07:51.615Z,100811.31
2023-01-30T09:10:19.346Z,100796.81
2023-01-30T09:12:46.543Z,100787.38
2023-01-30T09:15:13.208Z,100790.81
2023-01-30T09:17:39.987Z,100792.53
2023-01-30T09:20:08.876Z,100784.84
2023-01-30T09:22:35.599Z,100786.50
2023-01-30T09:25:02.202Z,100784.81
2023-01-30T09:27:28.647Z,100778.84
2023-01-30T09:29:55.177Z,100763.44
2023-01-30T09:32:21.756Z,100760.03
2023-01-30T09:34:48.562Z,100776.34
2023-01-30T09:37:15.057Z,100785.75
2023-01-30T09:39:41.541Z,100768.63
2023-01-30T09:42:18.593Z,100784.91
2023-01-30T09:45:03.222Z,100790.06
2023-01-30T09:48:06.458Z,100776.38
2023-01-30T09:50:50.127Z,100780.69
2023-01-30T09:53:38.159Z,100783.28
2023-01-30T09:56:05.493Z,100773.00
2023-01-30T09:58:55.595Z,100778.16
2023-01-30T10:01:48.990Z,100768.78
2023-01-30T10:04:24.108Z,100766.22
2023-01-30T10:07:02.145Z,100774.78
2023-01-30T10:09:40.895Z,100778.25
2023-01-30T10:12:19.747Z,100776.53
2023-01-30T10:15:10.032Z,100777.38
2023-01-30T10:17:51.922Z,100768.00
2023-01-30T10:20:39.952Z,100768.84
2023-01-30T10:23:28.662Z,100769.72
2023-01-30T10:26:10.221Z,100762.06
2023-01-30T10:29:07.551Z,100762.94
2023-01-30T10:31:44.749Z,100775.81
2023-01-30T10:34:18.923Z,100774.13
2023-01-30T10:37:05.438Z,100775.00
2023-01-30T10:39:58.435Z,100765.59
2023-01-30T10:42:47.997Z,100749.31
2023-01-30T10:45:22.263Z,100749.34
2023-01-30T10:48:28.686Z,100746.78
2023-01-30T10:51:17.984Z,100739.94
2023-01-30T10:53:56.528Z,100751.13
2023-01-30T10:56:37.115Z,100739.13
2023-01-30T10:59:07.239Z,100740.00
2023-01-30T11:01:44.028Z,100738.28
2023-01-30T11:04:24.040Z,100725.44
2023-01-30T11:06:52.390Z,100734.00
2023-01-30T11:09:18.876Z,100727.16
2023-01-30T11:11:53.741Z,100741.72
2023-01-30T11:14:20.662Z,100746.88
2023-01-30T11:16:53.058Z,100738.31
2023-01-30T11:19:30.165Z,100732.31
2023-01-30T11:22:02.332Z,100728.00
2023-01-30T11:24:31.958Z,100733.19
2023-01-30T11:27:21.506Z,100728.94
2023-01-30T11:29:50.207Z,100724.63
2023-01-30T11:32:26.094Z,100729.78
2023-01-30T11:35:27.035Z,100749.56
2023-01-30T11:37:53.895Z,100723.84
2023-01-30T11:40:25.809Z,100723.00
2023-01-30T11:43:03.701Z,100709.25
2023-01-30T11:45:36.738Z,100716.16
2023-01-30T11:48:23.501Z,100699.81
2023-01-30T11:51:05.123Z,100699.81
2023-01-30T11:54:03.672Z,100710.97
2023-01-30T11:56:47.541Z,100709.25
2023-01-30T11:59:31.994Z,100722.09
2023-01-30T12:02:30.399Z,100716.88
2023-01-30T12:05:04.663Z,100708.28
2023-01-30T12:07:34.285Z,100705.66
2023-01-30T12:10:00.931Z,100703.94
2023-01-30T12:12:37.899Z,100720.25
2023-01-30T12:15:15.637Z,100697.03
2023-01-30T12:18:01.652Z,100698.75
2023-01-30T12:20:32.947Z,100698.75
2023-01-30T12:23:12.387Z,100709.94
2023-01-30T12:25:43.108Z,100700.47
2023-01-30T12:28:29.966Z,100701.34
2023-01-30T12:31:04.140Z,100719.41
2023-01-30T12:33:34.885Z,100703.94
2023-01-30T12:36:04.346Z,100708.25
2023-01-30T12:38:38.636Z,100687.59
2023-01-30T12:41:28.787Z,100692.72
2023-01-30T12:44:19.579Z,100691.00
2023-01-30T12:47:04.074Z,100725.41
2023-01-30T12:49:48.131Z,100720.25
2023-01-30T12:52:40.862Z,100710.78
2023-01-30T12:55:07.246Z,100710.78
2023-01-30T12:57:46.780Z,100715.09
2023-01-30T13:00:34.687Z,100712.50
2023-01-30T13:03:29.193Z,100717.66
2023-01-30T13:06:07.997Z,100710.78
2023-01-30T13:08:58.378Z,100702.16
2023-01-30T13:11:44.895Z,100713.25
2023-01-30T13:14:41.885Z,100704.63
2023-01-30T13:17:34.156Z,100714.09
2023-01-30T13:20:12.977Z,100704.66
2023-01-30T13:22:51.026Z,100708.97
2023-01-30T13:25:20.720Z,100713.25
2023-01-30T13:27:55.235Z,100718.41
2023-01-30T13:30:25.660Z,100708.91
2023-01-30T13:32:56.732Z,100712.31
2023-01-30T13:35:29.249Z,100705.28
2023-01-30T13:37:57.640Z,100703.66
2023-01-30T13:40:24.368Z,100707.88
2023-01-30T13:43:07.182Z,100715.59
2023-01-30T13:45:37.047Z,100700.91
2023-01-30T13:48:20.953Z,100711.19
2023-01-30T13:51:12.445Z,100699.13
2023-01-30T13:53:50.497Z,100705.16
2023-01-30T13:56:49.815Z,100710.34
2023-01-30T13:59:28.409Z,100718.06
2023-01-30T14:02:04.179Z,100709.44
2023-01-30T14:04:40.055Z,100705.13
2023-01-30T14:07:12.578Z,100699.13
2023-01-30T14:09:43.396Z,100699.97
2023-01-30T14:12:39.934Z,100706.00
2023-01-30T14:15:13.103Z,100706.00
2023-01-30T14:17:56.717Z,100709.44
2023-01-30T14:20:26.233Z,100723.22
2023-01-30T14:23:03.443Z,100724.09
2023-01-30T14:25:29.974Z,100731.84
2023-01-30T14:27:59.432Z,100732.72
2023-01-30T14:30:45.440Z,100724.97
2023-01-30T14:33:21.260Z,100724.94
2023-01-30T14:36:03.260Z,100729.25
2023-01-30T14:38:35.366Z,100734.41
2023-01-30T14:41:01.779Z,100742.19
2023-01-30T14:43:43.821Z,100738.75
2023-01-30T14:46:16.189Z,100737.06
2023-01-30T14:48:45.637Z,100749.94
2023-01-30T14:51:39.924Z,100736.16
2023-01-30T14:54:12.820Z,100740.53
2023-01-30T14:56:45.598Z,100749.94
2023-01-30T14:59:29.063Z,100741.31
2023-01-30T15:02:02.767Z,100728.38
2023-01-30T15:04:39.617Z,100737.84
2023-01-30T15:07:12.722Z,100745.59
2023-01-30T15:09:44.105Z,100742.13
2023-01-30T15:12:29.485Z,100752.47
2023-01-30T15:15:15.194Z,100753.31
2023-01-30T15:18:08.839Z,100774.81
2023-01-30T15:20:49.706Z,100766.22
2023-01-30T15:23:38.574Z,100785.19
2023-01-30T15:26:21.403Z,100786.94
2023-01-30T15:29:25.584Z,100787.78
2023-01-30T15:32:14.735Z,100786.91
2023-01-30T15:34:48.968Z,100793.78
2023-01-30T15:37:29.957Z,100799.78
2023-01-30T15:40:21.081Z,100799.78
2023-01-30T15:42:57.307Z,100801.50
2023-01-30T15:45:51.259Z,100812.72
2023-01-30T15:48:36.130Z,100816.16
2023-01-30T15:51:03.256Z,100830.75
2023-01-30T15:53:50.290Z,100842.81
2023-01-30T15:56:21.925Z,100860.03
2023-01-30T15:58:49.080Z,100872.94
2023-01-30T16:01:21.045Z,100882.44
2023-01-30T16:03:53.298Z,100883.34
2023-01-30T16:06:35.733Z,100891.97
2023-01-30T16:09:05.619Z,100898.88
2023-01-30T16:11:40.696Z,100892.84
2023-01-30T16:14:16.626Z,100888.59
2023-01-30T16:16:59.141Z,100897.19
2023-01-30T16:19:35.828Z,100895.50
2023-01-30T16:22:15.397Z,100904.97
2023-01-30T16:24:46.462Z,100907.53
2023-01-30T16:27:20.505Z,100904.09
2023-01-30T16:29:53.099Z,100925.63
2023-01-30T16:32:26.843Z,100913.56
2023-01-30T16:35:30.690Z,100921.34
2023-01-30T16:38:00.386Z,100931.72
2023-01-30T16:40:33.472Z,100927.44
2023-01-30T16:43:17.011Z,100940.34
2023-01-30T16:45:52.704Z,100945.50
2023-01-30T16:48:19.496Z,100955.84
2023-01-30T16:50:48.615Z,100954.09
2023-01-30T16:53:24.142Z,100957.56
2023-01-30T16:55:55.697Z,100963.59
2023-01-30T16:58:23.237Z,100966.16
2023-01-30T17:00:51.266Z,100979.94
2023-01-30T17:03:45.827Z,100976.47
2023-01-30T17:06:26.418Z,100984.22
2023-01-30T17:08:54.457Z,100990.22
2023-01-30T17:11:41.436Z,100996.22
2023-01-30T17:14:26.025Z,100994.50
2023-01-30T17:17:09.493Z,101001.41
2023-01-30T17:19:36.982Z,100999.66
2023-01-30T17:22:07.869Z,100997.94
2023-01-30T17:24:36.502Z,101006.53
2023-01-30T17:27:04.456Z,100997.94
2023-01-30T17:29:42.506Z,101003.97
2023-01-30T17:32:15.043Z,101014.25
2023-01-30T17:34:41.964Z,101009.09
2023-01-30T17:37:14.478Z,101015.94
2023-01-30T17:39:41.451Z,101013.38
2023-01-30T17:42:12.302Z,101020.25
2023-01-30T17:44:39.405Z,101016.81
2023-01-30T17:47:06.351Z,101032.25
2023-01-30T17:49:33.077Z,101036.53
2023-01-30T17:52:00.511Z,101046.03
2023-01-30T17:54:27.281Z,101033.13
2023-01-30T17:56:59.176Z,101039.97
2023-01-30T17:59:26.230Z,101052.00
2023-01-30T18:01:53.938Z,101048.59
2023-01-30T18:04:21.157Z,101047.72
2023-01-30T18:06:50.637Z,101042.56
2023-01-30T18:09:22.578Z,101051.16
2023-01-30T18:11:50.180Z,101064.91
2023-01-30T18:14:17.173Z,101064.88
2023-01-30T18:16:44.185Z,101056.34
2023-01-30T18:19:14.519Z,101071.78
2023-01-30T18:21:44.894Z,101064.06
2023-01-30T18:24:12.821Z,101066.63
2023-01-30T18:26:40.348Z,101084.66
2023-01-30T18:29:07.829Z,101085.53
2023-01-30T18:31:34.401Z,101088.94
2023-01-30T18:34:00.920Z,101094.13
2023-01-30T18:36:28.142Z,101098.41
2023-01-30T18:38:54.791Z,101095.84
2023-01-30T18:41:23.819Z,101091.56
2023-01-30T18:43:55.689Z,101097.56
2023-01-30T18:46:23.002Z,101093.25
2023-01-30T18:48:49.710Z,101100.13
2023-01-30T18:51:17.874Z,101102.72
2023-01-30T18:53:46.683Z,101095.81
2023-01-30T18:56:15.800Z,101094.97
2023-01-30T18:58:42.355Z,101106.13
2023-01-30T19:01:11.082Z,101104.41
2023-01-30T19:03:37.894Z,101111.28
2023-01-30T19:06:04.932Z,101123.28
2023-01-30T19:08:31.585Z,101123.31
2023-01-30T19:11:27.966Z,101126.75
2023-01-30T19:13:55.346Z,101130.19
2023-01-30T19:16:24.627Z,101130.22
2023-01-30T19:18:52.627Z,101133.66
2023-01-30T19:21:19.673Z,101145.69
2023-01-30T19:23:46.767Z,101146.53
2023-01-30T19:26:13.357Z,101145.66
2023-01-30T19:28:41.575Z,101153.38
2023-01-30T19:31:09.580Z,101161.13
2023-01-30T19:33:36.541Z,101155.09
2023-01-30T19:36:13.407Z,101155.97
2023-01-30T19:38:40.852Z,101164.59
2023-01-30T19:41:18.656Z,101161.13
2023-01-30T19:43:45.443Z,101161.97
2023-01-30T19:46:12.325Z,101166.28
2023-01-30T19:48:39.734Z,101162.00
2023-01-30T19:51:15.792Z,101168.88
2023-01-30T19:53:45.157Z,101174.91
2023-01-30T19:56:13.709Z,101172.34
2023-01-30T19:58:41.095Z,101169.75
2023-01-30T20:01:13.015Z,101171.53
2023-01-30T20:03:40.724Z,101179.25
2023-01-30T20:06:14.591Z,101185.25
2023-01-30T20:08:43.079Z,101184.41
2023-01-30T20:11:11.932Z,101189.56
2023-01-30T20:13:40.660Z,101187.84
2023-01-30T20:16:09.782Z,101197.31
2023-01-30T20:18:40.015Z,101197.34
2023-01-30T20:21:07.441Z,101197.28
2023-01-30T20:23:34.997Z,101198.16
2023-01-30T20:26:07.375Z,101202.47
2023-01-30T20:28:34.476Z,101201.59
2023-01-30T20:31:07.953Z,101200.75
2023-01-30T20:33:34.751Z,101203.34
2023-01-30T20:36:02.769Z,101221.41
2023-01-30T20:38:32.091Z,101220.53
2023-01-30T20:41:13.205Z,101214.50
2023-01-30T20:43:40.988Z,101225.69
2023-01-30T20:46:11.121Z,101225.72
2023-01-30T20:48:38.940Z,101230.84
2023-01-30T20:51:09.411Z,101224.84
2023-01-30T20:53:37.145Z,101223.97
2023-01-30T20:56:04.844Z,101231.72
2023-01-30T20:58:32.074Z,101236.03
2023-01-30T21:01:10.204Z,101246.34
2023-01-30T21:03:37.361Z,101244.63
2023-01-30T21:06:05.306Z,101255.84
2023-01-30T21:08:32.002Z,101255.84
2023-01-30T21:11:11.611Z,101264.44
2023-01-30T21:13:40.193Z,101267.91
2023-01-30T21:16:16.393Z,101265.34
2023-01-30T21:18:45.548Z,101271.38
2023-01-30T21:21:31.189Z,101273.09
2023-01-30T21:24:01.244Z,101271.38
2023-01-30T21:26:30.245Z,101274.81
2023-01-30T21:28:56.868Z,101268.81
2023-01-30T21:31:26.393Z,101273.97
2023-01-30T21:33:55.427Z,101280.00
2023-01-30T21:36:22.322Z,101289.44
2023-01-30T21:39:07.208Z,101303.19
2023-01-30T21:42:05.327Z,101296.31
2023-01-30T21:44:34.272Z,101300.63
2023-01-30T21:47:01.027Z,101296.28
2023-01-30T21:49:27.996Z,101293.72
2023-01-30T21:51:55.325Z,101305.78
2023-01-30T21:54:22.277Z,101312.63
2023-01-30T21:56:49.659Z,101304.91
2023-01-30T21:59:16.508Z,101308.34
2023-01-30T22:01:43.073Z,101298.03
2023-01-30T22:04:14.067Z,101308.34
2023-01-30T22:06:41.723Z,101307.50
2023-01-30T22:09:08.947Z,101305.78
2023-01-30T22:11:37.921Z,101310.09
2023-01-30T22:14:04.627Z,101314.38
2023-01-30T22:16:33.700Z,101313.53
2023-01-30T22:19:03.788Z,101316.13
2023-01-30T22:21:36.241Z,101310.09
2023-01-30T22:24:05.473Z,101314.41
2023-01-30T22:26:32.392Z,101323.88
2023-01-30T22:29:00.568Z,101320.47
2023-01-30T22:31:31.122Z,101317.88
2023-01-30T22:33:58.566Z,101325.63
2023-01-30T22:36:28.320Z,101333.34
2023-01-30T22:38:55.667Z,101337.69
2023-01-30T22:41:25.092Z,101348.00
2023-01-30T22:43:56.775Z,101333.41
2023-01-30T22:46:26.424Z,101342.88
2023-01-30T22:48:54.101Z,101340.28
2023-01-30T22:51:23.251Z,101337.72
2023-01-30T22:53:55.468Z,101354.09
2023-01-30T22:56:24.642Z,101354.94
2023-01-30T22:58:51.934Z,101341.16
2023-01-30T23:01:24.404Z,101342.03
2023-01-30T23:04:00.009Z,101351.50
2023-01-30T23:06:27.129Z,101345.47
2023-01-30T23:08:55.024Z,101338.56
2023-01-30T23:11:33.356Z,101350.63
2023-01-30T23:14:15.632Z,101349.75
2023-01-30T23:16:44.339Z,101342.00
2023-01-30T23:19:13.076Z,101348.91
2023-01-30T23:21:42.556Z,101341.13
2023-01-30T23:24:20.889Z,101340.28
2023-01-30T23:26:50.672Z,101347.16
2023-01-30T23:29:20.132Z,101342.84
2023-01-30T23:31:47.652Z,101344.53
2023-01-30T23:34:18.870Z,101349.72
2023-01-30T23:36:46.208Z,101341.16
2023-01-30T23:39:14.332Z,101338.53
2023-01-30T23:41:42.142Z,101336.81
2023-01-30T23:44:10.124Z,101346.25
2023-01-30T23:46:40.096Z,101342.84
2023-01-30T23:49:09.781Z,101342.00
2023-01-30T23:51:37.752Z,101342.84
2023-01-30T23:54:05.301Z,101344.56
2023-01-30T23:56:35.479Z,101341.97
2023-01-30T23:59:02.904Z,101341.13
